sensor_id;sensor_type;location;lat;lon;timestamp;P1;durP1;ratioP1;P2;durP2;ratioP2
55589;SDS011;41452;42.780;23.116;2023-06-01T00:01:36;8.48;;;3.90;;
55589;SDS011;41452;42.780;23.116;2023-06-01T00:04:02;6.38;;;3.10;;
55589;SDS011;41452;42.780;23.116;2023-06-01T00:06:28;10.18;;;3.30;;
55589;SDS011;41452;42.780;23.116;2023-06-01T00:08:56;8.52;;;3.70;;
55589;SDS011;41452;42.780;23.116;2023-06-01T00:11:22;4.78;;;2.90;;
55589;SDS011;41452;42.780;23.116;2023-06-01T00:13:48;7.50;;;3.75;;
55589;SDS011;41452;42.780;23.116;2023-06-01T00:16:14;4.72;;;3.17;;
55589;SDS011;41452;42.780;23.116;2023-06-01T00:18:40;12.07;;;3.55;;
55589;SDS011;41452;42.780;23.116;2023-06-01T00:21:06;7.38;;;3.85;;
55589;SDS011;41452;42.780;23.116;2023-06-01T00:23:31;9.55;;;4.05;;
55589;SDS011;41452;42.780;23.116;2023-06-01T00:25:57;7.93;;;3.33;;
55589;SDS011;41452;42.780;23.116;2023-06-01T00:28:23;7.75;;;3.80;;
55589;SDS011;41452;42.780;23.116;2023-06-01T00:30:49;5.57;;;3.30;;
55589;SDS011;41452;42.780;23.116;2023-06-01T00:33:14;8.23;;;3.70;;
55589;SDS011;41452;42.780;23.116;2023-06-01T00:35:40;7.68;;;4.35;;
55589;SDS011;41452;42.780;23.116;2023-06-01T00:38:05;7.55;;;3.17;;
55589;SDS011;41452;42.780;23.116;2023-06-01T00:40:32;5.90;;;3.40;;
55589;SDS011;41452;42.780;23.116;2023-06-01T00:42:58;5.22;;;3.35;;
55589;SDS011;41452;42.780;23.116;2023-06-01T00:45:23;9.13;;;3.13;;
55589;SDS011;41452;42.780;23.116;2023-06-01T00:47:48;4.90;;;2.78;;
55589;SDS011;41452;42.780;23.116;2023-06-01T00:50:14;8.93;;;2.72;;
55589;SDS011;41452;42.780;23.116;2023-06-01T00:52:39;6.93;;;3.20;;
55589;SDS011;41452;42.780;23.116;2023-06-01T00:55:05;7.13;;;3.65;;
55589;SDS011;41452;42.780;23.116;2023-06-01T00:57:32;7.05;;;3.53;;
55589;SDS011;41452;42.780;23.116;2023-06-01T00:59:59;5.35;;;3.13;;
55589;SDS011;41452;42.780;23.116;2023-06-01T01:02:33;11.53;;;3.67;;
55589;SDS011;41452;42.780;23.116;2023-06-01T01:05:02;6.70;;;3.00;;
55589;SDS011;41452;42.780;23.116;2023-06-01T01:07:32;5.68;;;3.03;;
55589;SDS011;41452;42.780;23.116;2023-06-01T01:10:10;7.00;;;3.45;;
55589;SDS011;41452;42.780;23.116;2023-06-01T01:12:49;5.63;;;2.88;;
55589;SDS011;41452;42.780;23.116;2023-06-01T01:16:05;6.47;;;2.72;;
55589;SDS011;41452;42.780;23.116;2023-06-01T01:18:51;9.07;;;3.65;;
55589;SDS011;41452;42.780;23.116;2023-06-01T01:21:24;15.75;;;3.33;;
55589;SDS011;41452;42.780;23.116;2023-06-01T01:29:33;10.35;;;3.15;;
55589;SDS011;41452;42.780;23.116;2023-06-01T01:32:00;4.78;;;2.83;;
55589;SDS011;41452;42.780;23.116;2023-06-01T01:34:29;6.28;;;2.72;;
55589;SDS011;41452;42.780;23.116;2023-06-01T01:36:56;5.63;;;2.90;;
55589;SDS011;41452;42.780;23.116;2023-06-01T01:39:21;5.68;;;2.85;;
55589;SDS011;41452;42.780;23.116;2023-06-01T01:41:46;5.63;;;3.00;;
55589;SDS011;41452;42.780;23.116;2023-06-01T01:44:12;8.73;;;3.50;;
55589;SDS011;41452;42.780;23.116;2023-06-01T01:49:30;5.28;;;2.97;;
55589;SDS011;41452;42.780;23.116;2023-06-01T01:52:10;6.63;;;2.92;;
55589;SDS011;41452;42.780;23.116;2023-06-01T01:54:43;7.35;;;2.65;;
55589;SDS011;41452;42.780;23.116;2023-06-01T01:57:14;5.63;;;3.13;;
55589;SDS011;41452;42.780;23.116;2023-06-01T01:59:40;12.35;;;2.92;;
55589;SDS011;41452;42.780;23.116;2023-06-01T02:02:07;9.43;;;3.40;;
55589;SDS011;41452;42.780;23.116;2023-06-01T02:04:32;8.32;;;3.17;;
55589;SDS011;41452;42.780;23.116;2023-06-01T02:07:03;5.22;;;2.83;;
55589;SDS011;41452;42.780;23.116;2023-06-01T02:09:28;10.45;;;3.30;;
55589;SDS011;41452;42.780;23.116;2023-06-01T02:11:53;9.02;;;3.42;;
55589;SDS011;41452;42.780;23.116;2023-06-01T02:14:19;6.40;;;3.25;;
55589;SDS011;41452;42.780;23.116;2023-06-01T02:16:44;9.55;;;3.05;;
55589;SDS011;41452;42.780;23.116;2023-06-01T02:19:10;8.35;;;3.38;;
55589;SDS011;41452;42.780;23.116;2023-06-01T02:21:36;5.70;;;3.30;;
55589;SDS011;41452;42.780;23.116;2023-06-01T02:24:01;10.48;;;3.55;;
55589;SDS011;41452;42.780;23.116;2023-06-01T02:26:30;6.35;;;3.40;;
55589;SDS011;41452;42.780;23.116;2023-06-01T02:28:56;6.15;;;3.30;;
55589;SDS011;41452;42.780;23.116;2023-06-01T02:31:21;8.02;;;3.15;;
55589;SDS011;41452;42.780;23.116;2023-06-01T02:33:47;7.53;;;3.40;;
55589;SDS011;41452;42.780;23.116;2023-06-01T02:36:13;8.75;;;3.28;;
55589;SDS011;41452;42.780;23.116;2023-06-01T02:38:41;7.40;;;3.58;;
55589;SDS011;41452;42.780;23.116;2023-06-01T02:41:07;10.95;;;3.75;;
55589;SDS011;41452;42.780;23.116;2023-06-01T02:43:35;10.98;;;3.83;;
55589;SDS011;41452;42.780;23.116;2023-06-01T02:46:00;12.73;;;3.97;;
55589;SDS011;41452;42.780;23.116;2023-06-01T02:48:26;6.45;;;3.50;;
55589;SDS011;41452;42.780;23.116;2023-06-01T02:50:53;8.05;;;3.90;;
55589;SDS011;41452;42.780;23.116;2023-06-01T02:53:18;10.57;;;4.07;;
55589;SDS011;41452;42.780;23.116;2023-06-01T02:55:43;6.22;;;3.70;;
55589;SDS011;41452;42.780;23.116;2023-06-01T02:58:09;9.25;;;4.22;;
55589;SDS011;41452;42.780;23.116;2023-06-01T03:00:41;10.57;;;3.53;;
55589;SDS011;41452;42.780;23.116;2023-06-01T03:03:07;6.47;;;4.00;;
55589;SDS011;41452;42.780;23.116;2023-06-01T03:05:32;8.73;;;3.92;;
55589;SDS011;41452;42.780;23.116;2023-06-01T03:07:58;6.38;;;3.40;;
55589;SDS011;41452;42.780;23.116;2023-06-01T03:10:23;8.80;;;4.20;;
55589;SDS011;41452;42.780;23.116;2023-06-01T03:12:49;8.95;;;4.40;;
55589;SDS011;41452;42.780;23.116;2023-06-01T03:15:14;7.60;;;4.32;;
55589;SDS011;41452;42.780;23.116;2023-06-01T03:17:40;7.85;;;3.72;;
55589;SDS011;41452;42.780;23.116;2023-06-01T03:20:06;11.98;;;4.47;;
55589;SDS011;41452;42.780;23.116;2023-06-01T03:22:39;10.45;;;4.85;;
55589;SDS011;41452;42.780;23.116;2023-06-01T03:25:06;7.25;;;4.50;;
55589;SDS011;41452;42.780;23.116;2023-06-01T03:27:32;14.13;;;5.32;;
55589;SDS011;41452;42.780;23.116;2023-06-01T03:29:58;10.32;;;4.38;;
55589;SDS011;41452;42.780;23.116;2023-06-01T03:32:23;18.02;;;4.82;;
55589;SDS011;41452;42.780;23.116;2023-06-01T03:34:48;9.40;;;5.13;;
55589;SDS011;41452;42.780;23.116;2023-06-01T03:37:14;13.73;;;6.15;;
55589;SDS011;41452;42.780;23.116;2023-06-01T03:39:39;9.73;;;5.40;;
55589;SDS011;41452;42.780;23.116;2023-06-01T03:42:05;12.75;;;5.57;;
55589;SDS011;41452;42.780;23.116;2023-06-01T03:44:32;14.60;;;6.53;;
55589;SDS011;41452;42.780;23.116;2023-06-01T03:46:57;14.18;;;6.82;;
55589;SDS011;41452;42.780;23.116;2023-06-01T03:49:23;13.95;;;6.25;;
55589;SDS011;41452;42.780;23.116;2023-06-01T03:51:48;17.38;;;8.25;;
55589;SDS011;41452;42.780;23.116;2023-06-01T03:54:14;24.13;;;9.65;;
55589;SDS011;41452;42.780;23.116;2023-06-01T03:56:39;21.05;;;9.98;;
55589;SDS011;41452;42.780;23.116;2023-06-01T03:59:05;24.85;;;10.70;;
55589;SDS011;41452;42.780;23.116;2023-06-01T04:01:35;21.55;;;11.10;;
55589;SDS011;41452;42.780;23.116;2023-06-01T04:04:04;18.90;;;10.63;;
55589;SDS011;41452;42.780;23.116;2023-06-01T04:06:30;20.63;;;11.50;;
55589;SDS011;41452;42.780;23.116;2023-06-01T04:09:00;18.13;;;9.73;;
55589;SDS011;41452;42.780;23.116;2023-06-01T04:11:31;16.85;;;10.15;;
55589;SDS011;41452;42.780;23.116;2023-06-01T04:14:00;17.08;;;9.18;;
55589;SDS011;41452;42.780;23.116;2023-06-01T04:16:25;20.85;;;11.43;;
55589;SDS011;41452;42.780;23.116;2023-06-01T04:18:51;21.83;;;11.38;;
55589;SDS011;41452;42.780;23.116;2023-06-01T04:21:17;22.98;;;11.25;;
55589;SDS011;41452;42.780;23.116;2023-06-01T04:23:42;29.58;;;12.30;;
55589;SDS011;41452;42.780;23.116;2023-06-01T04:26:08;34.40;;;13.30;;
55589;SDS011;41452;42.780;23.116;2023-06-01T04:28:33;40.20;;;13.80;;
55589;SDS011;41452;42.780;23.116;2023-06-01T04:31:00;31.13;;;13.27;;
55589;SDS011;41452;42.780;23.116;2023-06-01T04:33:27;28.33;;;12.85;;
55589;SDS011;41452;42.780;23.116;2023-06-01T04:35:52;29.88;;;14.63;;
55589;SDS011;41452;42.780;23.116;2023-06-01T04:38:19;30.42;;;12.57;;
55589;SDS011;41452;42.780;23.116;2023-06-01T04:40:46;30.65;;;12.88;;
55589;SDS011;41452;42.780;23.116;2023-06-01T04:43:11;35.25;;;13.27;;
55589;SDS011;41452;42.780;23.116;2023-06-01T04:45:37;27.77;;;13.00;;
55589;SDS011;41452;42.780;23.116;2023-06-01T04:48:04;35.58;;;14.40;;
55589;SDS011;41452;42.780;23.116;2023-06-01T04:50:33;29.27;;;11.82;;
55589;SDS011;41452;42.780;23.116;2023-06-01T04:52:59;32.92;;;13.25;;
55589;SDS011;41452;42.780;23.116;2023-06-01T04:55:26;25.45;;;12.52;;
55589;SDS011;41452;42.780;23.116;2023-06-01T04:57:51;32.20;;;14.50;;
55589;SDS011;41452;42.780;23.116;2023-06-01T05:00:17;41.50;;;16.20;;
55589;SDS011;41452;42.780;23.116;2023-06-01T05:02:43;42.38;;;15.63;;
55589;SDS011;41452;42.780;23.116;2023-06-01T05:05:10;42.90;;;17.27;;
55589;SDS011;41452;42.780;23.116;2023-06-01T05:07:36;49.58;;;18.73;;
55589;SDS011;41452;42.780;23.116;2023-06-01T05:10:02;36.92;;;16.42;;
55589;SDS011;41452;42.780;23.116;2023-06-01T05:12:31;36.53;;;16.63;;
55589;SDS011;41452;42.780;23.116;2023-06-01T05:15:00;41.92;;;15.82;;
55589;SDS011;41452;42.780;23.116;2023-06-01T05:17:26;29.50;;;12.95;;
55589;SDS011;41452;42.780;23.116;2023-06-01T05:19:52;40.42;;;14.98;;
55589;SDS011;41452;42.780;23.116;2023-06-01T05:22:17;35.47;;;14.05;;
55589;SDS011;41452;42.780;23.116;2023-06-01T05:24:42;32.05;;;12.63;;
55589;SDS011;41452;42.780;23.116;2023-06-01T05:27:08;27.33;;;12.93;;
55589;SDS011;41452;42.780;23.116;2023-06-01T05:29:33;26.27;;;13.55;;
55589;SDS011;41452;42.780;23.116;2023-06-01T05:31:59;39.28;;;13.63;;
55589;SDS011;41452;42.780;23.116;2023-06-01T05:34:24;39.38;;;13.43;;
55589;SDS011;41452;42.780;23.116;2023-06-01T05:36:49;24.40;;;14.05;;
55589;SDS011;41452;42.780;23.116;2023-06-01T05:39:15;28.52;;;13.43;;
55589;SDS011;41452;42.780;23.116;2023-06-01T05:41:40;25.88;;;12.88;;
55589;SDS011;41452;42.780;23.116;2023-06-01T05:44:06;34.17;;;14.32;;
55589;SDS011;41452;42.780;23.116;2023-06-01T05:46:32;27.27;;;13.88;;
55589;SDS011;41452;42.780;23.116;2023-06-01T05:48:57;28.48;;;14.27;;
55589;SDS011;41452;42.780;23.116;2023-06-01T05:51:22;32.72;;;14.02;;
55589;SDS011;41452;42.780;23.116;2023-06-01T05:53:48;37.55;;;17.42;;
55589;SDS011;41452;42.780;23.116;2023-06-01T05:56:13;35.40;;;15.57;;
55589;SDS011;41452;42.780;23.116;2023-06-01T05:58:38;35.15;;;16.90;;
55589;SDS011;41452;42.780;23.116;2023-06-01T06:01:04;35.35;;;17.00;;
55589;SDS011;41452;42.780;23.116;2023-06-01T06:03:30;36.28;;;17.10;;
55589;SDS011;41452;42.780;23.116;2023-06-01T06:05:55;33.08;;;15.95;;
55589;SDS011;41452;42.780;23.116;2023-06-01T06:08:21;32.17;;;15.95;;
55589;SDS011;41452;42.780;23.116;2023-06-01T06:10:46;30.35;;;16.65;;
55589;SDS011;41452;42.780;23.116;2023-06-01T06:13:13;34.75;;;17.27;;
55589;SDS011;41452;42.780;23.116;2023-06-01T06:15:39;37.58;;;16.98;;
55589;SDS011;41452;42.780;23.116;2023-06-01T06:18:04;33.40;;;16.83;;
55589;SDS011;41452;42.780;23.116;2023-06-01T06:20:30;35.33;;;17.50;;
55589;SDS011;41452;42.780;23.116;2023-06-01T06:22:56;32.80;;;17.92;;
55589;SDS011;41452;42.780;23.116;2023-06-01T06:25:21;36.53;;;19.55;;
55589;SDS011;41452;42.780;23.116;2023-06-01T06:27:47;32.63;;;18.60;;
55589;SDS011;41452;42.780;23.116;2023-06-01T06:30:13;38.22;;;19.17;;
55589;SDS011;41452;42.780;23.116;2023-06-01T06:32:38;35.63;;;20.55;;
55589;SDS011;41452;42.780;23.116;2023-06-01T06:35:04;37.78;;;19.75;;
55589;SDS011;41452;42.780;23.116;2023-06-01T06:37:29;35.90;;;20.48;;
55589;SDS011;41452;42.780;23.116;2023-06-01T06:39:55;34.47;;;19.95;;
55589;SDS011;41452;42.780;23.116;2023-06-01T06:42:21;32.42;;;18.73;;
55589;SDS011;41452;42.780;23.116;2023-06-01T06:44:46;37.33;;;19.77;;
55589;SDS011;41452;42.780;23.116;2023-06-01T06:47:12;36.65;;;19.85;;
55589;SDS011;41452;42.780;23.116;2023-06-01T06:49:43;39.25;;;20.20;;
55589;SDS011;41452;42.780;23.116;2023-06-01T06:52:09;35.47;;;20.63;;
55589;SDS011;41452;42.780;23.116;2023-06-01T06:54:35;36.03;;;19.02;;
55589;SDS011;41452;42.780;23.116;2023-06-01T06:57:03;33.70;;;18.83;;
55589;SDS011;41452;42.780;23.116;2023-06-01T06:59:29;33.30;;;18.63;;
55589;SDS011;41452;42.780;23.116;2023-06-01T07:01:54;38.33;;;20.65;;
55589;SDS011;41452;42.780;23.116;2023-06-01T07:04:19;35.58;;;20.15;;
55589;SDS011;41452;42.780;23.116;2023-06-01T07:06:45;34.63;;;18.70;;
55589;SDS011;41452;42.780;23.116;2023-06-01T07:09:11;34.92;;;19.80;;
55589;SDS011;41452;42.780;23.116;2023-06-01T07:11:36;31.55;;;17.95;;
55589;SDS011;41452;42.780;23.116;2023-06-01T07:14:01;36.28;;;19.60;;
55589;SDS011;41452;42.780;23.116;2023-06-01T07:16:27;31.25;;;18.75;;
55589;SDS011;41452;42.780;23.116;2023-06-01T07:18:54;33.15;;;17.38;;
55589;SDS011;41452;42.780;23.116;2023-06-01T07:21:19;29.70;;;17.80;;
55589;SDS011;41452;42.780;23.116;2023-06-01T07:23:45;31.17;;;17.88;;
55589;SDS011;41452;42.780;23.116;2023-06-01T07:26:11;29.75;;;17.85;;
55589;SDS011;41452;42.780;23.116;2023-06-01T07:28:36;28.90;;;17.63;;
55589;SDS011;41452;42.780;23.116;2023-06-01T07:31:02;28.10;;;16.77;;
55589;SDS011;41452;42.780;23.116;2023-06-01T07:33:28;29.17;;;16.98;;
55589;SDS011;41452;42.780;23.116;2023-06-01T07:35:54;25.88;;;15.27;;
55589;SDS011;41452;42.780;23.116;2023-06-01T07:38:21;28.45;;;16.92;;
55589;SDS011;41452;42.780;23.116;2023-06-01T07:40:47;26.27;;;15.75;;
55589;SDS011;41452;42.780;23.116;2023-06-01T07:43:13;33.60;;;17.30;;
55589;SDS011;41452;42.780;23.116;2023-06-01T07:45:39;27.35;;;17.00;;
55589;SDS011;41452;42.780;23.116;2023-06-01T07:48:05;25.90;;;15.20;;
55589;SDS011;41452;42.780;23.116;2023-06-01T07:50:30;29.45;;;16.27;;
55589;SDS011;41452;42.780;23.116;2023-06-01T07:52:56;26.58;;;16.40;;
55589;SDS011;41452;42.780;23.116;2023-06-01T07:55:22;29.65;;;16.80;;
55589;SDS011;41452;42.780;23.116;2023-06-01T07:57:48;27.67;;;16.13;;
55589;SDS011;41452;42.780;23.116;2023-06-01T08:00:14;30.90;;;15.48;;
55589;SDS011;41452;42.780;23.116;2023-06-01T08:02:42;24.75;;;14.48;;
55589;SDS011;41452;42.780;23.116;2023-06-01T08:05:08;24.08;;;14.35;;
55589;SDS011;41452;42.780;23.116;2023-06-01T08:07:35;24.65;;;13.43;;
55589;SDS011;41452;42.780;23.116;2023-06-01T08:10:00;20.23;;;11.45;;
55589;SDS011;41452;42.780;23.116;2023-06-01T08:12:26;18.05;;;10.88;;
55589;SDS011;41452;42.780;23.116;2023-06-01T08:14:52;19.23;;;11.93;;
55589;SDS011;41452;42.780;23.116;2023-06-01T08:17:17;15.60;;;9.15;;
55589;SDS011;41452;42.780;23.116;2023-06-01T08:19:43;12.40;;;8.07;;
55589;SDS011;41452;42.780;23.116;2023-06-01T08:22:10;17.40;;;8.90;;
55589;SDS011;41452;42.780;23.116;2023-06-01T08:24:37;14.82;;;7.78;;
55589;SDS011;41452;42.780;23.116;2023-06-01T08:27:15;12.00;;;7.68;;
55589;SDS011;41452;42.780;23.116;2023-06-01T08:29:41;12.38;;;7.88;;
55589;SDS011;41452;42.780;23.116;2023-06-01T08:32:06;12.60;;;7.25;;
55589;SDS011;41452;42.780;23.116;2023-06-01T08:34:32;15.98;;;7.82;;
55589;SDS011;41452;42.780;23.116;2023-06-01T08:36:57;12.27;;;7.18;;
55589;SDS011;41452;42.780;23.116;2023-06-01T08:39:23;15.50;;;8.52;;
55589;SDS011;41452;42.780;23.116;2023-06-01T08:41:54;12.40;;;7.25;;
55589;SDS011;41452;42.780;23.116;2023-06-01T08:44:22;21.17;;;8.32;;
55589;SDS011;41452;42.780;23.116;2023-06-01T08:46:52;21.27;;;8.52;;
55589;SDS011;41452;42.780;23.116;2023-06-01T08:49:19;11.55;;;7.45;;
55589;SDS011;41452;42.780;23.116;2023-06-01T08:51:49;16.83;;;8.85;;
55589;SDS011;41452;42.780;23.116;2023-06-01T08:54:19;13.57;;;9.45;;
55589;SDS011;41452;42.780;23.116;2023-06-01T08:56:45;15.10;;;6.85;;
55589;SDS011;41452;42.780;23.116;2023-06-01T08:59:11;16.05;;;7.43;;
55589;SDS011;41452;42.780;23.116;2023-06-01T09:01:38;16.23;;;7.00;;
55589;SDS011;41452;42.780;23.116;2023-06-01T09:04:04;12.05;;;6.72;;
55589;SDS011;41452;42.780;23.116;2023-06-01T09:06:29;12.95;;;7.18;;
55589;SDS011;41452;42.780;23.116;2023-06-01T09:08:55;9.68;;;5.97;;
55589;SDS011;41452;42.780;23.116;2023-06-01T09:11:20;11.50;;;5.70;;
55589;SDS011;41452;42.780;23.116;2023-06-01T09:13:46;12.55;;;5.40;;
55589;SDS011;41452;42.780;23.116;2023-06-01T09:16:12;13.30;;;6.13;;
55589;SDS011;41452;42.780;23.116;2023-06-01T09:18:49;11.32;;;5.95;;
55589;SDS011;41452;42.780;23.116;2023-06-01T09:21:16;11.88;;;6.68;;
55589;SDS011;41452;42.780;23.116;2023-06-01T09:23:42;11.88;;;6.22;;
55589;SDS011;41452;42.780;23.116;2023-06-01T09:26:11;9.60;;;5.55;;
55589;SDS011;41452;42.780;23.116;2023-06-01T09:31:41;10.98;;;5.50;;
55589;SDS011;41452;42.780;23.116;2023-06-01T09:34:11;11.45;;;5.25;;
55589;SDS011;41452;42.780;23.116;2023-06-01T09:36:40;7.47;;;4.93;;
55589;SDS011;41452;42.780;23.116;2023-06-01T09:41:55;9.63;;;5.00;;
55589;SDS011;41452;42.780;23.116;2023-06-01T09:44:30;8.85;;;5.10;;
55589;SDS011;41452;42.780;23.116;2023-06-01T09:46:57;8.47;;;5.37;;
55589;SDS011;41452;42.780;23.116;2023-06-01T09:49:29;7.30;;;5.20;;
55589;SDS011;41452;42.780;23.116;2023-06-01T09:56:58;11.05;;;5.45;;
55589;SDS011;41452;42.780;23.116;2023-06-01T09:59:26;11.02;;;5.20;;
55589;SDS011;41452;42.780;23.116;2023-06-01T10:01:54;8.93;;;4.70;;
55589;SDS011;41452;42.780;23.116;2023-06-01T10:04:27;6.50;;;4.50;;
55589;SDS011;41452;42.780;23.116;2023-06-01T10:06:54;7.97;;;5.25;;
55589;SDS011;41452;42.780;23.116;2023-06-01T10:09:22;12.00;;;5.30;;
55589;SDS011;41452;42.780;23.116;2023-06-01T10:11:50;8.00;;;5.40;;
55589;SDS011;41452;42.780;23.116;2023-06-01T10:14:23;11.25;;;4.90;;
55589;SDS011;41452;42.780;23.116;2023-06-01T10:16:49;7.75;;;5.53;;
55589;SDS011;41452;42.780;23.116;2023-06-01T10:19:17;9.90;;;5.25;;
55589;SDS011;41452;42.780;23.116;2023-06-01T10:21:44;7.90;;;5.00;;
55589;SDS011;41452;42.780;23.116;2023-06-01T10:24:11;8.85;;;5.22;;
55589;SDS011;41452;42.780;23.116;2023-06-01T10:29:31;5.95;;;4.00;;
55589;SDS011;41452;42.780;23.116;2023-06-01T10:31:57;7.05;;;4.65;;
55589;SDS011;41452;42.780;23.116;2023-06-01T10:34:42;7.18;;;4.78;;
55589;SDS011;41452;42.780;23.116;2023-06-01T10:37:10;10.68;;;5.22;;
55589;SDS011;41452;42.780;23.116;2023-06-01T10:39:36;6.03;;;3.97;;
55589;SDS011;41452;42.780;23.116;2023-06-01T10:54:54;11.20;;;5.20;;
55589;SDS011;41452;42.780;23.116;2023-06-01T10:57:40;8.20;;;4.97;;
55589;SDS011;41452;42.780;23.116;2023-06-01T11:00:16;9.93;;;4.75;;
55589;SDS011;41452;42.780;23.116;2023-06-01T11:02:45;8.85;;;5.05;;
55589;SDS011;41452;42.780;23.116;2023-06-01T11:08:04;10.27;;;6.35;;
55589;SDS011;41452;42.780;23.116;2023-06-01T11:13:28;11.63;;;7.05;;
55589;SDS011;41452;42.780;23.116;2023-06-01T11:24:00;9.88;;;6.78;;
55589;SDS011;41452;42.780;23.116;2023-06-01T11:26:31;13.88;;;7.10;;
55589;SDS011;41452;42.780;23.116;2023-06-01T11:29:03;9.00;;;6.53;;
55589;SDS011;41452;42.780;23.116;2023-06-01T11:31:38;10.20;;;7.00;;
55589;SDS011;41452;42.780;23.116;2023-06-01T11:34:26;8.63;;;6.25;;
55589;SDS011;41452;42.780;23.116;2023-06-01T11:36:57;8.52;;;5.68;;
55589;SDS011;41452;42.780;23.116;2023-06-01T11:39:24;9.57;;;6.18;;
55589;SDS011;41452;42.780;23.116;2023-06-01T11:42:36;7.65;;;5.55;;
55589;SDS011;41452;42.780;23.116;2023-06-01T11:44:41;9.25;;;5.32;;
55589;SDS011;41452;42.780;23.116;2023-06-01T11:47:12;8.85;;;5.38;;
55589;SDS011;41452;42.780;23.116;2023-06-01T11:52:12;11.60;;;6.22;;
55589;SDS011;41452;42.780;23.116;2023-06-01T11:54:38;11.85;;;6.47;;
55589;SDS011;41452;42.780;23.116;2023-06-01T11:57:04;10.75;;;6.20;;
55589;SDS011;41452;42.780;23.116;2023-06-01T11:59:37;13.52;;;6.63;;
55589;SDS011;41452;42.780;23.116;2023-06-01T12:02:14;8.45;;;5.28;;
55589;SDS011;41452;42.780;23.116;2023-06-01T12:04:41;7.05;;;4.82;;
55589;SDS011;41452;42.780;23.116;2023-06-01T12:07:08;8.48;;;5.18;;
55589;SDS011;41452;42.780;23.116;2023-06-01T12:09:34;5.90;;;4.47;;
55589;SDS011;41452;42.780;23.116;2023-06-01T12:12:00;8.73;;;5.57;;
55589;SDS011;41452;42.780;23.116;2023-06-01T12:14:26;8.00;;;4.88;;
55589;SDS011;41452;42.780;23.116;2023-06-01T12:19:18;8.63;;;4.75;;
55589;SDS011;41452;42.780;23.116;2023-06-01T12:21:50;10.57;;;5.10;;
55589;SDS011;41452;42.780;23.116;2023-06-01T12:24:17;6.75;;;4.55;;
55589;SDS011;41452;42.780;23.116;2023-06-01T12:26:43;8.27;;;4.88;;
55589;SDS011;41452;42.780;23.116;2023-06-01T12:29:09;7.80;;;4.90;;
55589;SDS011;41452;42.780;23.116;2023-06-01T12:31:34;12.02;;;5.40;;
55589;SDS011;41452;42.780;23.116;2023-06-01T12:34:00;13.52;;;4.00;;
55589;SDS011;41452;42.780;23.116;2023-06-01T12:36:32;6.47;;;3.72;;
55589;SDS011;41452;42.780;23.116;2023-06-01T12:39:02;6.30;;;3.42;;
55589;SDS011;41452;42.780;23.116;2023-06-01T12:41:29;10.15;;;2.90;;
55589;SDS011;41452;42.780;23.116;2023-06-01T12:43:55;5.55;;;2.75;;
55589;SDS011;41452;42.780;23.116;2023-06-01T12:46:25;6.78;;;3.08;;
55589;SDS011;41452;42.780;23.116;2023-06-01T12:49:13;6.13;;;2.40;;
55589;SDS011;41452;42.780;23.116;2023-06-01T12:51:39;5.45;;;2.75;;
55589;SDS011;41452;42.780;23.116;2023-06-01T12:54:04;3.78;;;2.20;;
55589;SDS011;41452;42.780;23.116;2023-06-01T12:56:29;5.70;;;2.17;;
55589;SDS011;41452;42.780;23.116;2023-06-01T12:58:55;3.17;;;1.83;;
55589;SDS011;41452;42.780;23.116;2023-06-01T13:01:21;4.38;;;2.10;;
55589;SDS011;41452;42.780;23.116;2023-06-01T13:03:46;3.92;;;2.20;;
55589;SDS011;41452;42.780;23.116;2023-06-01T13:06:14;4.20;;;1.73;;
55589;SDS011;41452;42.780;23.116;2023-06-01T13:08:41;3.35;;;1.40;;
55589;SDS011;41452;42.780;23.116;2023-06-01T13:11:08;4.10;;;2.10;;
55589;SDS011;41452;42.780;23.116;2023-06-01T13:13:34;3.20;;;1.85;;
55589;SDS011;41452;42.780;23.116;2023-06-01T13:15:59;3.78;;;1.73;;
55589;SDS011;41452;42.780;23.116;2023-06-01T13:18:25;3.42;;;1.98;;
55589;SDS011;41452;42.780;23.116;2023-06-01T13:20:50;3.40;;;2.03;;
55589;SDS011;41452;42.780;23.116;2023-06-01T13:23:16;3.85;;;2.17;;
55589;SDS011;41452;42.780;23.116;2023-06-01T13:25:42;3.75;;;2.03;;
55589;SDS011;41452;42.780;23.116;2023-06-01T13:28:07;4.47;;;2.10;;
55589;SDS011;41452;42.780;23.116;2023-06-01T13:30:34;3.22;;;2.05;;
55589;SDS011;41452;42.780;23.116;2023-06-01T13:33:00;17.35;;;3.10;;
55589;SDS011;41452;42.780;23.116;2023-06-01T13:35:26;5.68;;;2.72;;
55589;SDS011;41452;42.780;23.116;2023-06-01T13:37:52;4.70;;;2.85;;
55589;SDS011;41452;42.780;23.116;2023-06-01T13:40:17;6.00;;;2.95;;
55589;SDS011;41452;42.780;23.116;2023-06-01T13:42:46;6.40;;;3.10;;
55589;SDS011;41452;42.780;23.116;2023-06-01T13:45:12;6.13;;;2.75;;
55589;SDS011;41452;42.780;23.116;2023-06-01T13:47:37;4.15;;;2.30;;
55589;SDS011;41452;42.780;23.116;2023-06-01T13:50:03;5.97;;;2.65;;
55589;SDS011;41452;42.780;23.116;2023-06-01T13:52:29;7.95;;;2.55;;
55589;SDS011;41452;42.780;23.116;2023-06-01T13:54:55;4.60;;;2.60;;
55589;SDS011;41452;42.780;23.116;2023-06-01T13:57:20;8.43;;;3.28;;
55589;SDS011;41452;42.780;23.116;2023-06-01T13:59:47;5.22;;;2.95;;
55589;SDS011;41452;42.780;23.116;2023-06-01T14:02:12;5.80;;;3.25;;
55589;SDS011;41452;42.780;23.116;2023-06-01T14:04:38;7.80;;;3.47;;
55589;SDS011;41452;42.780;23.116;2023-06-01T14:07:03;6.28;;;3.58;;
55589;SDS011;41452;42.780;23.116;2023-06-01T14:09:29;10.35;;;3.80;;
55589;SDS011;41452;42.780;23.116;2023-06-01T14:11:55;6.50;;;2.92;;
55589;SDS011;41452;42.780;23.116;2023-06-01T14:14:20;6.88;;;3.17;;
55589;SDS011;41452;42.780;23.116;2023-06-01T14:16:45;6.60;;;3.40;;
55589;SDS011;41452;42.780;23.116;2023-06-01T14:19:11;9.20;;;3.83;;
55589;SDS011;41452;42.780;23.116;2023-06-01T14:21:36;5.50;;;3.13;;
55589;SDS011;41452;42.780;23.116;2023-06-01T14:24:03;5.10;;;3.22;;
55589;SDS011;41452;42.780;23.116;2023-06-01T14:26:29;7.63;;;3.58;;
55589;SDS011;41452;42.780;23.116;2023-06-01T14:28:55;8.48;;;2.97;;
55589;SDS011;41452;42.780;23.116;2023-06-01T14:31:20;6.10;;;3.17;;
55589;SDS011;41452;42.780;23.116;2023-06-01T14:33:46;6.35;;;3.08;;
55589;SDS011;41452;42.780;23.116;2023-06-01T14:36:13;8.38;;;2.92;;
55589;SDS011;41452;42.780;23.116;2023-06-01T14:38:38;6.45;;;2.72;;
55589;SDS011;41452;42.780;23.116;2023-06-01T14:41:04;9.88;;;2.90;;
55589;SDS011;41452;42.780;23.116;2023-06-01T14:43:29;6.88;;;3.40;;
55589;SDS011;41452;42.780;23.116;2023-06-01T14:45:55;13.43;;;3.28;;
55589;SDS011;41452;42.780;23.116;2023-06-01T14:48:21;9.23;;;3.95;;
55589;SDS011;41452;42.780;23.116;2023-06-01T14:50:47;6.70;;;2.80;;
55589;SDS011;41452;42.780;23.116;2023-06-01T14:53:12;7.18;;;3.55;;
55589;SDS011;41452;42.780;23.116;2023-06-01T14:55:38;8.07;;;2.90;;
55589;SDS011;41452;42.780;23.116;2023-06-01T14:58:05;5.25;;;2.80;;
55589;SDS011;41452;42.780;23.116;2023-06-01T15:00:31;5.18;;;2.80;;
55589;SDS011;41452;42.780;23.116;2023-06-01T15:02:59;8.82;;;3.03;;
55589;SDS011;41452;42.780;23.116;2023-06-01T15:05:24;6.20;;;3.10;;
55589;SDS011;41452;42.780;23.116;2023-06-01T15:07:50;7.25;;;3.40;;
55589;SDS011;41452;42.780;23.116;2023-06-01T15:10:15;4.97;;;2.70;;
55589;SDS011;41452;42.780;23.116;2023-06-01T15:12:41;4.57;;;3.05;;
55589;SDS011;41452;42.780;23.116;2023-06-01T15:15:06;8.13;;;3.10;;
55589;SDS011;41452;42.780;23.116;2023-06-01T15:17:32;6.68;;;3.55;;